createdAt,value
2019-02-23T00:01:53.949Z,100532.00
2019-02-23T00:04:22.331Z,100541.89
2019-02-23T00:06:52.026Z,100541.06
2019-02-23T00:09:19.798Z,100549.08
2019-02-23T00:11:47.567Z,100551.47
2019-02-23T00:14:15.785Z,100558.76
2019-02-23T00:16:43.858Z,100558.76
2019-02-23T00:19:11.943Z,100563.05
2019-02-23T00:21:40.128Z,100560.38
2019-02-23T00:24:08.479Z,100562.16
2019-02-23T00:26:36.191Z,100559.65
2019-02-23T00:29:04.738Z,100552.43
2019-02-23T00:31:33.247Z,100549.92
2019-02-23T00:34:01.424Z,100548.14
2019-02-23T00:36:29.461Z,100553.41
2019-02-23T00:38:57.361Z,100551.77
2019-02-23T00:41:25.381Z,100550.14
2019-02-23T00:43:53.110Z,100549.85
2019-02-23T00:46:20.892Z,100552.30
2019-02-23T00:48:49.328Z,100546.89
2019-02-23T00:51:17.687Z,100545.21
2019-02-23T00:53:46.619Z,100545.97
2019-02-23T00:56:15.026Z,100546.27
2019-02-23T00:58:43.861Z,100543.81
2019-02-23T01:01:11.988Z,100541.20
2019-02-23T01:03:40.705Z,100542.98
2019-02-23T01:06:08.758Z,100545.37
2019-02-23T01:08:36.914Z,100547.31
2019-02-23T01:11:06.221Z,100544.86
2019-02-23T01:13:34.994Z,100540.25
2019-02-23T01:16:03.202Z,100541.59
2019-02-23T01:18:32.475Z,100541.97
2019-02-23T01:21:00.724Z,100544.03
2019-02-23T01:23:28.503Z,100553.09
2019-02-23T01:25:56.431Z,100542.47
2019-02-23T01:28:24.353Z,100541.08
2019-02-23T01:30:52.081Z,100552.36
2019-02-23T01:33:19.806Z,100545.97
2019-02-23T01:35:47.865Z,100554.20
2019-02-23T01:38:15.603Z,100545.37
2019-02-23T01:40:43.215Z,100542.13
2019-02-23T01:43:11.087Z,100539.96
2019-02-23T01:45:42.221Z,100534.02
2019-02-23T01:48:11.080Z,100539.13
2019-02-23T01:50:39.761Z,100534.55
2019-02-23T01:53:07.626Z,100538.27
2019-02-23T01:55:35.684Z,100536.62
2019-02-23T01:58:04.142Z,100537.06
2019-02-23T02:00:32.707Z,100530.70
2019-02-23T02:03:00.858Z,100533.95
2019-02-23T02:05:29.204Z,100541.38
2019-02-23T02:07:57.227Z,100538.11
2019-02-23T02:10:25.296Z,100536.70
2019-02-23T02:12:53.274Z,100541.22
2019-02-23T02:15:22.189Z,100549.52
2019-02-23T02:17:50.428Z,100550.85
2019-02-23T02:20:18.113Z,100547.83
2019-02-23T02:22:45.976Z,100548.05
2019-02-23T02:25:13.784Z,100559.02
2019-02-23T02:27:41.914Z,100565.47
2019-02-23T02:30:11.285Z,100559.77
2019-02-23T02:32:40.152Z,100559.45
2019-02-23T02:35:09.478Z,100556.79
2019-02-23T02:37:37.330Z,100562.34
2019-02-23T02:40:07.652Z,100557.84
2019-02-23T02:42:36.042Z,100557.23
2019-02-23T02:45:05.376Z,100552.11
2019-02-23T02:47:35.115Z,100556.11
2019-02-23T02:50:04.391Z,100552.42
2019-02-23T02:52:32.438Z,100564.51
2019-02-23T02:55:00.352Z,100566.00
2019-02-23T02:57:29.074Z,100568.13
2019-02-23T02:59:56.961Z,100574.00
2019-02-23T03:02:25.588Z,100575.84
2019-02-23T03:04:53.982Z,100570.73
2019-02-23T03:07:21.941Z,100567.16
2019-02-23T03:09:50.044Z,100577.27
2019-02-23T03:12:18.997Z,100572.94
2019-02-23T03:14:47.003Z,100577.98
2019-02-23T03:17:15.645Z,100580.95
2019-02-23T03:19:44.405Z,100565.25
2019-02-23T03:22:12.136Z,100563.16
2019-02-23T03:24:40.583Z,100555.80
2019-02-23T03:27:09.499Z,100559.91
2019-02-23T03:29:37.528Z,100571.16
2019-02-23T03:32:06.325Z,100569.55
2019-02-23T03:34:35.082Z,100572.82
2019-02-23T03:37:02.934Z,100577.62
2019-02-23T03:39:31.014Z,100576.22
2019-02-23T03:41:59.154Z,100574.05
2019-02-23T03:44:27.092Z,100576.50
2019-02-23T03:46:55.451Z,100574.59
2019-02-23T03:49:23.353Z,100568.94
2019-02-23T03:51:52.775Z,100574.70
2019-02-23T03:54:23.191Z,100578.71
2019-02-23T03:56:51.293Z,100575.03
2019-02-23T03:59:19.718Z,100581.48
2019-02-23T04:01:48.318Z,100575.25
2019-02-23T04:04:17.218Z,100576.94
2019-02-23T04:06:45.670Z,100577.38
2019-02-23T04:09:14.043Z,100573.70
2019-02-23T04:11:42.368Z,100577.23
2019-02-23T04:14:10.063Z,100580.95
2019-02-23T04:16:38.086Z,100576.19
2019-02-23T04:19:06.222Z,100575.47
2019-02-23T04:21:34.420Z,100578.64
2019-02-23T04:24:02.531Z,100578.86
2019-02-23T04:26:30.859Z,100573.52
2019-02-23T04:29:00.342Z,100547.11
2019-02-23T04:31:28.745Z,100572.51
2019-02-23T04:33:56.826Z,100564.79
2019-02-23T04:36:25.063Z,100569.84
2019-02-23T04:38:54.239Z,100577.96
2019-02-23T04:41:22.619Z,100572.12
2019-02-23T04:43:50.920Z,100568.05
2019-02-23T04:46:19.405Z,100555.36
2019-02-23T04:50:41.330Z,100532.30
2019-02-23T04:53:09.308Z,100534.36
2019-02-23T04:55:36.796Z,100537.25
2019-02-23T04:58:04.264Z,100535.63
2019-02-23T05:00:32.031Z,100543.63
2019-02-23T05:02:59.423Z,100543.63
2019-02-23T05:05:27.262Z,100547.20
2019-02-23T05:07:55.027Z,100545.51
2019-02-23T05:10:22.874Z,100554.31
2019-02-23T05:12:50.343Z,100554.31
2019-02-23T05:15:18.179Z,100543.13
2019-02-23T05:17:45.661Z,100543.70
2019-02-23T05:20:13.732Z,100546.38
2019-02-23T05:22:41.497Z,100543.70
2019-02-23T05:26:45.806Z,100526.67
2019-02-23T05:29:12.894Z,100519.11
2019-02-23T05:31:40.419Z,100519.69
2019-02-23T05:34:07.532Z,100521.17
2019-02-23T05:36:34.676Z,100519.84
2019-02-23T05:39:04.118Z,100530.52
2019-02-23T05:41:31.534Z,100538.84
2019-02-23T05:43:59.130Z,100534.52
2019-02-23T05:46:26.690Z,100533.33
2019-02-23T05:48:54.155Z,100534.22
2019-02-23T05:51:22.325Z,100532.38
2019-02-23T05:53:50.188Z,100528.06
2019-02-23T05:56:17.634Z,100518.65
2019-02-23T05:58:45.928Z,100521.47
2019-02-23T06:01:13.906Z,100515.37
2019-02-23T06:03:42.167Z,100527.99
2019-02-23T06:06:09.951Z,100523.38
2019-02-23T06:08:37.431Z,100531.70
2019-02-23T06:11:05.572Z,100530.37
2019-02-23T06:13:32.891Z,100531.39
2019-02-23T06:16:00.158Z,100542.66
2019-02-23T06:18:27.415Z,100526.95
2019-02-23T06:20:55.708Z,100527.09
2019-02-23T06:23:23.262Z,100535.09
2019-02-23T06:25:52.122Z,100536.14
2019-02-23T06:28:20.420Z,100537.77
2019-02-23T06:30:47.997Z,100529.77
2019-02-23T06:33:15.745Z,100526.48
2019-02-23T06:35:43.550Z,100527.94
2019-02-23T06:38:11.282Z,100539.94
2019-02-23T06:40:38.547Z,100538.03
2019-02-23T06:43:06.264Z,100542.10
2019-02-23T06:45:34.595Z,100546.93
2019-02-23T06:48:01.806Z,100548.84
2019-02-23T06:50:29.591Z,100550.94
2019-02-23T06:52:56.853Z,100547.66
2019-02-23T06:55:24.622Z,100546.39
2019-02-23T06:57:51.837Z,100556.45
2019-02-23T07:00:19.584Z,100557.89
2019-02-23T07:02:47.078Z,100556.84
2019-02-23T07:05:14.314Z,100559.73
2019-02-23T07:07:41.547Z,100555.95
2019-02-23T07:10:10.705Z,100565.07
2019-02-23T07:12:38.422Z,100575.73
2019-02-23T07:15:07.090Z,100578.95
2019-02-23T07:17:35.277Z,100579.59
2019-02-23T07:20:02.837Z,100582.13
2019-02-23T07:22:30.710Z,100587.24
2019-02-23T07:24:58.583Z,100584.58
2019-02-23T07:27:26.201Z,100580.17
2019-02-23T07:29:53.467Z,100577.28
2019-02-23T07:32:20.712Z,100574.30
2019-02-23T07:34:48.454Z,100567.58
2019-02-23T07:37:15.959Z,100566.86
2019-02-23T07:41:27.636Z,100574.11
2019-02-23T07:43:55.215Z,100571.29
2019-02-23T07:46:23.575Z,100578.86
2019-02-23T07:48:51.147Z,100588.38
2019-02-23T07:51:19.677Z,100586.45
2019-02-23T07:53:47.593Z,100587.35
2019-02-23T07:56:16.093Z,100574.80
2019-02-23T07:58:43.617Z,100564.73
2019-02-23T08:01:11.645Z,100564.07
2019-02-23T08:03:39.267Z,100564.07
2019-02-23T08:06:07.344Z,100562.58
2019-02-23T08:08:34.989Z,100549.38
2019-02-23T08:11:02.871Z,100549.38
2019-02-23T08:13:30.478Z,100558.22
2019-02-23T08:15:58.132Z,100552.06
2019-02-23T08:18:26.660Z,100555.31
2019-02-23T08:20:54.214Z,100558.13
2019-02-23T08:23:22.088Z,100559.63
2019-02-23T08:25:50.657Z,100560.81
2019-02-23T08:28:18.426Z,100548.80
2019-02-23T08:30:47.065Z,100551.47
2019-02-23T08:33:14.573Z,100552.36
2019-02-23T08:35:42.750Z,100559.33
2019-02-23T08:38:10.212Z,100564.29
2019-02-23T08:40:37.768Z,100566.23
2019-02-23T08:43:05.640Z,100572.34
2019-02-23T08:46:20.096Z,100571.45
2019-02-23T08:48:47.636Z,100569.28
2019-02-23T08:52:21.967Z,100571.52
2019-02-23T08:54:49.510Z,100573.73
2019-02-23T08:57:16.863Z,100563.21
2019-02-23T08:59:46.283Z,100563.21
2019-02-23T09:02:13.601Z,100588.28
2019-02-23T09:04:41.222Z,100584.11
2019-02-23T09:07:08.508Z,100589.16
2019-02-23T09:09:35.841Z,100581.88
2019-02-23T09:12:04.000Z,100592.85
2019-02-23T09:14:32.239Z,100603.03
2019-02-23T09:16:59.813Z,100608.50
2019-02-23T09:19:27.921Z,100613.17
2019-02-23T09:21:55.850Z,100614.50
2019-02-23T09:24:23.663Z,100628.45
2019-02-23T09:26:51.166Z,100622.42
2019-02-23T09:29:19.221Z,100628.38
2019-02-23T09:31:46.746Z,100616.69
2019-02-23T09:34:15.505Z,100601.25
2019-02-23T09:36:42.762Z,100591.34
2019-02-23T09:39:10.178Z,100596.84
2019-02-23T09:41:37.874Z,100595.93
2019-02-23T09:44:06.070Z,100597.95
2019-02-23T09:49:15.130Z,100584.55
2019-02-23T09:51:43.083Z,100589.90
2019-02-23T09:55:31.802Z,100590.75
2019-02-23T09:57:59.090Z,100590.75
2019-02-23T10:00:26.731Z,100587.77
2019-02-23T10:02:54.283Z,100582.13
2019-02-23T10:05:22.131Z,100592.31
2019-02-23T10:07:49.419Z,100589.33
2019-02-23T10:10:17.974Z,100594.67
2019-02-23T10:12:45.539Z,100579.59
2019-02-23T10:15:13.677Z,100579.59
2019-02-23T10:17:41.338Z,100595.73
2019-02-23T10:20:09.281Z,100576.37
2019-02-23T10:22:40.295Z,100576.18
2019-02-23T10:25:08.424Z,100592.05
2019-02-23T10:27:36.462Z,100592.05
2019-02-23T10:30:05.086Z,100596.80
2019-02-23T10:32:33.465Z,100602.16
2019-02-23T10:35:01.330Z,100602.45
2019-02-23T10:37:29.027Z,100601.62
2019-02-23T10:39:56.588Z,100599.13
2019-02-23T10:42:24.224Z,100609.44
2019-02-23T10:44:51.568Z,100616.89
2019-02-23T10:47:18.809Z,100625.94
2019-02-23T10:49:46.276Z,100624.15
2019-02-23T10:52:14.547Z,100619.31
2019-02-23T10:54:41.995Z,100594.56
2019-02-23T10:57:09.318Z,100625.94
2019-02-23T10:59:37.336Z,100630.11
2019-02-23T11:02:05.903Z,100624.76
2019-02-23T11:04:33.476Z,100618.36
2019-02-23T11:07:01.071Z,100608.72
2019-02-23T11:09:33.429Z,100599.08
2019-02-23T11:12:01.079Z,100586.73
2019-02-23T11:14:28.932Z,100569.78
2019-02-23T11:16:56.699Z,100564.44
2019-02-23T11:19:24.833Z,100533.26
2019-02-23T11:21:52.620Z,100533.26
2019-02-23T11:24:20.903Z,100546.89
2019-02-23T11:26:48.361Z,100553.13
2019-02-23T11:29:16.430Z,100537.22
2019-02-23T11:31:44.027Z,100527.78
2019-02-23T11:34:11.487Z,100527.78
2019-02-23T11:36:38.761Z,100510.88
2019-02-23T11:39:06.757Z,100510.88
2019-02-23T11:41:34.855Z,100526.52
2019-02-23T11:44:03.190Z,100525.41
2019-02-23T11:46:31.147Z,100518.16
2019-02-23T11:48:59.174Z,100524.23
2019-02-23T11:51:27.467Z,100513.41
2019-02-23T11:53:56.038Z,100515.37
2019-02-23T11:56:25.163Z,100515.23
2019-02-23T12:01:36.165Z,100503.05
2019-02-23T12:04:03.421Z,100509.25
2019-02-23T12:06:30.996Z,100506.33
2019-02-23T12:08:58.978Z,100503.23
2019-02-23T12:11:26.560Z,100503.23
2019-02-23T12:13:54.305Z,100512.45
2019-02-23T12:16:21.625Z,100514.14
2019-02-23T12:18:48.924Z,100493.75
2019-02-23T12:21:17.071Z,100493.75
2019-02-23T12:23:44.957Z,100505.89
2019-02-23T12:26:12.916Z,100511.23
2019-02-23T12:28:40.670Z,100503.83
2019-02-23T12:31:08.337Z,100499.98
2019-02-23T12:33:35.889Z,100492.33
2019-02-23T12:36:03.373Z,100492.84
2019-02-23T12:38:31.321Z,100481.09
2019-02-23T12:40:58.692Z,100475.47
2019-02-23T12:43:27.338Z,100475.98
2019-02-23T12:45:55.625Z,100476.39
2019-02-23T12:48:23.682Z,100468.50
2019-02-23T12:50:51.263Z,100469.14
2019-02-23T12:53:38.663Z,100454.20
2019-02-23T12:56:06.751Z,100443.50
2019-02-23T12:58:35.350Z,100434.55
2019-02-23T13:01:04.162Z,100432.02
2019-02-23T13:03:33.271Z,100436.45
2019-02-23T13:06:01.563Z,100434.20
2019-02-23T13:09:14.482Z,100432.86
2019-02-23T13:11:47.549Z,100429.09
2019-02-23T13:15:08.823Z,100429.09
2019-02-23T13:18:29.207Z,100413.61
2019-02-23T13:21:38.195Z,100421.39
2019-02-23T13:25:20.640Z,100422.73
2019-02-23T13:28:44.242Z,100424.30
2019-02-23T13:31:41.552Z,100424.59
2019-02-23T13:34:59.521Z,100415.30
2019-02-23T13:42:06.753Z,100400.23
2019-02-23T13:45:37.655Z,100396.53
2019-02-23T13:49:26.103Z,100399.94
2019-02-23T13:52:58.908Z,100403.89
2019-02-23T13:56:48.999Z,100387.28
2019-02-23T14:00:11.336Z,100389.03
2019-02-23T14:03:51.175Z,100386.30
2019-02-23T14:07:05.594Z,100389.84
2019-02-23T14:10:55.599Z,100386.58
2019-02-23T14:14:26.593Z,100386.20
2019-02-23T14:18:04.552Z,100375.83
2019-02-23T14:21:22.143Z,100366.98
2019-02-23T14:24:49.821Z,100372.16
2019-02-23T14:28:00.859Z,100379.61
2019-02-23T14:31:29.146Z,100391.11
2019-02-23T14:34:51.060Z,100384.28
2019-02-23T14:37:33.038Z,100387.52
2019-02-23T14:41:24.673Z,100383.22
2019-02-23T14:45:00.565Z,100369.91
2019-02-23T14:50:22.388Z,100362.39
2019-02-23T14:54:21.756Z,100369.95
2019-02-23T14:57:44.912Z,100372.76
2019-02-23T15:00:57.824Z,100368.80
2019-02-23T15:04:00.185Z,100368.23
2019-02-23T15:07:27.510Z,100358.52
2019-02-23T15:10:30.967Z,100362.75
2019-02-23T15:13:41.529Z,100372.29
2019-02-23T15:16:54.044Z,100365.66
2019-02-23T15:20:46.603Z,100371.52
2019-02-23T15:24:01.651Z,100369.72
2019-02-23T15:27:11.071Z,100371.23
2019-02-23T15:30:08.767Z,100370.25
2019-02-23T15:33:58.566Z,100369.55
2019-02-23T15:37:31.552Z,100383.02
2019-02-23T15:40:26.249Z,100374.67
2019-02-23T15:43:31.117Z,100379.93
2019-02-23T15:46:50.220Z,100375.58
2019-02-23T15:49:31.805Z,100382.77
2019-02-23T15:52:04.846Z,100376.33
2019-02-23T15:54:32.386Z,100379.51
2019-02-23T15:57:00.951Z,100382.17
2019-02-23T15:59:28.951Z,100382.49
2019-02-23T16:01:56.919Z,100384.34
2019-02-23T16:04:24.863Z,100380.61
2019-02-23T16:06:52.262Z,100379.51
2019-02-23T16:09:19.879Z,100380.28
2019-02-23T16:11:47.140Z,100382.35
2019-02-23T16:14:14.431Z,100380.84
2019-02-23T16:16:42.156Z,100376.55
2019-02-23T16:19:09.934Z,100377.01
2019-02-23T16:21:37.106Z,100377.01
2019-02-23T16:24:04.815Z,100374.11
2019-02-23T16:26:34.524Z,100391.91
2019-02-23T16:29:03.963Z,100394.80
2019-02-23T16:31:34.281Z,100394.80
2019-02-23T16:34:03.546Z,100400.97
2019-02-23T16:36:32.454Z,100399.41
2019-02-23T16:39:01.121Z,100406.09
2019-02-23T16:41:29.110Z,100410.38
2019-02-23T16:43:59.109Z,100411.03
2019-02-23T16:46:26.867Z,100413.05
2019-02-23T16:48:55.411Z,100415.36
2019-02-23T16:51:22.401Z,100421.19
2019-02-23T16:53:50.474Z,100420.22
2019-02-23T16:56:18.043Z,100412.14
2019-02-23T16:58:46.641Z,100418.00
2019-02-23T17:01:14.671Z,100430.19
2019-02-23T17:03:42.338Z,100430.19
2019-02-23T17:07:32.433Z,100426.95
2019-02-23T17:10:00.381Z,100429.19
2019-02-23T17:12:28.580Z,100436.16
2019-02-23T17:14:56.972Z,100430.02
2019-02-23T17:17:24.620Z,100440.31
2019-02-23T17:19:52.011Z,100443.12
2019-02-23T17:22:21.153Z,100450.56
2019-02-23T17:24:48.404Z,100454.39
2019-02-23T17:27:15.643Z,100448.98
2019-02-23T17:29:42.883Z,100447.42
2019-02-23T17:32:10.980Z,100456.71
2019-02-23T17:34:38.181Z,100455.06
2019-02-23T17:37:05.982Z,100457.83
2019-02-23T17:39:33.667Z,100471.31
2019-02-23T17:42:01.931Z,100473.41
2019-02-23T17:44:31.177Z,100484.31
2019-02-23T17:46:59.108Z,100484.31
2019-02-23T17:49:26.560Z,100478.98
2019-02-23T17:51:54.648Z,100491.50
2019-02-23T17:54:21.875Z,100484.26
2019-02-23T17:56:49.560Z,100488.48
2019-02-23T17:59:17.235Z,100488.48
2019-02-23T18:01:45.634Z,100500.12
2019-02-23T18:04:12.926Z,100497.29
2019-02-23T18:06:40.283Z,100505.75
2019-02-23T18:09:07.595Z,100505.75
2019-02-23T18:11:36.122Z,100505.75
2019-02-23T18:14:04.933Z,100505.24
2019-02-23T18:16:33.679Z,100502.73
2019-02-23T18:19:02.084Z,100498.94
2019-02-23T18:21:30.144Z,100510.07
2019-02-23T18:23:57.338Z,100514.08
2019-02-23T18:26:27.753Z,100518.02
2019-02-23T18:28:55.609Z,100521.19
2019-02-23T18:31:22.802Z,100509.41
2019-02-23T18:33:49.979Z,100520.02
2019-02-23T18:36:17.236Z,100519.73
2019-02-23T18:38:44.419Z,100504.75
2019-02-23T18:41:11.621Z,100504.75
2019-02-23T18:43:39.796Z,100522.08
2019-02-23T18:46:07.372Z,100514.83
2019-02-23T18:48:35.073Z,100516.23
2019-02-23T18:51:02.366Z,100520.74
2019-02-23T18:53:30.482Z,100514.07
2019-02-23T18:55:58.316Z,100519.73
2019-02-23T18:58:26.204Z,100517.85
2019-02-23T19:00:54.980Z,100518.61
2019-02-23T19:03:22.542Z,100519.05
2019-02-23T19:07:01.775Z,100517.28
2019-02-23T19:09:29.652Z,100514.83
2019-02-23T19:11:56.906Z,100515.27
2019-02-23T19:14:24.168Z,100519.72
2019-02-23T19:16:51.407Z,100520.67
2019-02-23T19:19:19.575Z,100519.73
2019-02-23T19:21:47.962Z,100519.73
2019-02-23T19:24:15.959Z,100520.23
2019-02-23T19:29:26.914Z,100508.45
2019-02-23T19:31:54.559Z,100511.84
2019-02-23T19:34:22.127Z,100516.08
2019-02-23T19:36:50.725Z,100514.17
2019-02-23T19:39:18.123Z,100515.72
2019-02-23T19:41:45.430Z,100518.39
2019-02-23T19:44:13.395Z,100513.05
2019-02-23T19:46:50.325Z,100517.50
2019-02-23T19:49:17.803Z,100511.11
2019-02-23T19:51:45.501Z,100512.52
2019-02-23T19:54:13.806Z,100510.67
2019-02-23T19:56:46.758Z,100510.80
2019-02-23T19:59:11.012Z,100510.80
2019-02-23T20:01:38.926Z,100519.28
2019-02-23T20:04:06.194Z,100519.28
2019-02-23T20:06:34.213Z,100515.13
2019-02-23T20:09:01.846Z,100520.47
2019-02-23T20:11:29.327Z,100521.03
2019-02-23T20:13:56.841Z,100521.36
2019-02-23T20:16:24.141Z,100517.03
2019-02-23T20:18:51.797Z,100517.58
2019-02-23T20:21:19.275Z,100523.27
2019-02-23T20:23:48.054Z,100516.44
2019-02-23T20:26:16.540Z,100517.92
2019-02-23T20:28:44.213Z,100518.81
2019-02-23T20:31:11.859Z,100512.30
2019-02-23T20:33:40.311Z,100521.20
2019-02-23T20:36:08.384Z,100523.55
2019-02-23T20:38:36.938Z,100526.83
2019-02-23T20:41:04.804Z,100523.94
2019-02-23T20:45:30.927Z,100520.38
2019-02-23T20:47:58.876Z,100528.16
2019-02-23T20:52:10.244Z,100523.55
2019-02-23T20:54:37.876Z,100539.01
2019-02-23T20:57:13.629Z,100537.52
2019-02-23T21:01:35.671Z,100530.99
2019-02-23T21:04:03.041Z,100534.17
2019-02-23T21:06:31.242Z,100535.73
2019-02-23T21:08:58.782Z,100525.81
2019-02-23T21:11:27.874Z,100522.38
2019-02-23T21:13:55.966Z,100521.36
2019-02-23T21:16:23.836Z,100523.80
2019-02-23T21:18:51.507Z,100506.78
2019-02-23T21:21:19.638Z,100518.20
2019-02-23T21:23:47.146Z,100515.24
2019-02-23T21:26:14.846Z,100515.18
2019-02-23T21:28:42.078Z,100514.36
2019-02-23T21:31:10.088Z,100517.47
2019-02-23T21:33:40.227Z,100505.77
2019-02-23T21:36:08.647Z,100501.43
2019-02-23T21:38:36.253Z,100501.15
2019-02-23T21:41:04.527Z,100500.27
2019-02-23T21:43:32.693Z,100503.50
2019-02-23T21:46:00.255Z,100497.44
2019-02-23T21:48:28.732Z,100490.14
2019-02-23T21:50:56.943Z,100483.95
2019-02-23T21:53:24.673Z,100484.80
2019-02-23T21:55:52.097Z,100488.81
2019-02-23T21:58:19.708Z,100484.95
2019-02-23T22:00:47.885Z,100482.67
2019-02-23T22:03:15.384Z,100490.01
2019-02-23T22:05:43.076Z,100487.34
2019-02-23T22:08:10.599Z,100487.63
2019-02-23T22:10:39.081Z,100496.38
2019-02-23T22:13:07.379Z,100493.41
2019-02-23T22:15:34.939Z,100493.30
2019-02-23T22:18:02.516Z,100493.30
2019-02-23T22:20:30.607Z,100495.37
2019-02-23T22:22:58.039Z,100503.32
2019-02-23T22:25:25.354Z,100501.16
2019-02-23T22:27:53.362Z,100498.94
2019-02-23T22:30:21.553Z,100503.23
2019-02-23T22:32:49.479Z,100501.32
2019-02-23T22:35:18.033Z,100497.81
2019-02-23T22:37:47.206Z,100495.59
2019-02-23T22:40:16.421Z,100494.15
2019-02-23T22:42:46.217Z,100494.36
2019-02-23T22:45:14.433Z,100494.36
2019-02-23T22:47:42.236Z,100496.52
2019-02-23T22:50:11.030Z,100497.26
2019-02-23T22:52:38.912Z,100492.53
2019-02-23T22:55:06.968Z,100491.64
2019-02-23T22:57:40.518Z,100488.41
2019-02-23T23:00:08.614Z,100493.08
2019-02-23T23:02:37.849Z,100491.97
2019-02-23T23:05:07.258Z,100492.98
2019-02-23T23:07:35.637Z,100484.77
2019-02-23T23:10:05.725Z,100492.01
2019-02-23T23:12:34.248Z,100491.95
2019-02-23T23:15:02.678Z,100493.00
2019-02-23T23:17:31.452Z,100494.02
2019-02-23T23:19:59.282Z,100490.01
2019-02-23T23:22:27.419Z,100497.45
2019-02-23T23:24:55.513Z,100486.77
2019-02-23T23:27:23.293Z,100488.04
2019-02-23T23:29:51.557Z,100486.77
2019-02-23T23:32:20.082Z,100495.83
2019-02-23T23:34:48.569Z,100491.37
2019-02-23T23:37:16.423Z,100493.28
2019-02-23T23:39:45.089Z,100494.84
2019-02-23T23:42:13.522Z,100499.30
2019-02-23T23:44:41.552Z,100501.17
2019-02-23T23:47:09.698Z,100498.22
2019-02-23T23:52:06.156Z,100496.72
2019-02-23T23:54:34.227Z,100495.61
2019-02-23T23:57:02.437Z,100489.22
2019-02-23T23:59:31.680Z,100489.22
